sensor_id;sensor_type;location;lat;lon;timestamp;P1;durP1;ratioP1;P2;durP2;ratioP2
76477;SDS011;65309;49.790;18.972;2023-08-20T00:00:00;16.55;;;13.15;;
76477;SDS011;65309;49.790;18.972;2023-08-20T00:05:03;16.88;;;12.38;;
76477;SDS011;65309;49.790;18.972;2023-08-20T00:10:08;15.95;;;12.02;;
76477;SDS011;65309;49.790;18.972;2023-08-20T00:15:11;15.15;;;11.13;;
76477;SDS011;65309;49.790;18.972;2023-08-20T00:20:13;15.10;;;13.27;;
76477;SDS011;65309;49.790;18.972;2023-08-20T00:25:17;17.35;;;12.13;;
76477;SDS011;65309;49.790;18.972;2023-08-20T00:30:20;13.98;;;11.30;;
76477;SDS011;65309;49.790;18.972;2023-08-20T00:35:22;14.98;;;12.40;;
76477;SDS011;65309;49.790;18.972;2023-08-20T00:40:26;15.27;;;11.18;;
76477;SDS011;65309;49.790;18.972;2023-08-20T00:45:28;14.15;;;11.68;;
76477;SDS011;65309;49.790;18.972;2023-08-20T00:50:30;15.52;;;12.38;;
76477;SDS011;65309;49.790;18.972;2023-08-20T00:55:33;16.02;;;11.70;;
76477;SDS011;65309;49.790;18.972;2023-08-20T01:00:36;12.75;;;11.00;;
76477;SDS011;65309;49.790;18.972;2023-08-20T01:05:39;15.38;;;11.60;;
76477;SDS011;65309;49.790;18.972;2023-08-20T01:10:53;15.15;;;11.48;;
76477;SDS011;65309;49.790;18.972;2023-08-20T01:15:59;15.27;;;12.35;;
76477;SDS011;65309;49.790;18.972;2023-08-20T01:21:03;16.15;;;12.68;;
76477;SDS011;65309;49.790;18.972;2023-08-20T01:26:25;15.25;;;12.82;;
76477;SDS011;65309;49.790;18.972;2023-08-20T01:31:36;16.70;;;12.20;;
76477;SDS011;65309;49.790;18.972;2023-08-20T01:36:39;17.85;;;11.57;;
76477;SDS011;65309;49.790;18.972;2023-08-20T01:41:41;23.50;;;12.20;;
76477;SDS011;65309;49.790;18.972;2023-08-20T01:46:45;17.42;;;12.77;;
76477;SDS011;65309;49.790;18.972;2023-08-20T01:51:47;16.35;;;12.20;;
76477;SDS011;65309;49.790;18.972;2023-08-20T01:56:49;15.00;;;13.07;;
76477;SDS011;65309;49.790;18.972;2023-08-20T02:01:52;15.00;;;11.73;;
76477;SDS011;65309;49.790;18.972;2023-08-20T02:06:54;16.48;;;14.18;;
76477;SDS011;65309;49.790;18.972;2023-08-20T02:11:56;17.63;;;11.43;;
76477;SDS011;65309;49.790;18.972;2023-08-20T02:17:00;14.75;;;11.85;;
76477;SDS011;65309;49.790;18.972;2023-08-20T02:22:02;19.92;;;14.20;;
76477;SDS011;65309;49.790;18.972;2023-08-20T02:27:04;15.73;;;11.68;;
76477;SDS011;65309;49.790;18.972;2023-08-20T02:32:07;13.70;;;11.40;;
76477;SDS011;65309;49.790;18.972;2023-08-20T02:37:09;15.05;;;12.40;;
76477;SDS011;65309;49.790;18.972;2023-08-20T02:42:12;16.83;;;12.40;;
76477;SDS011;65309;49.790;18.972;2023-08-20T02:47:15;15.35;;;12.38;;
76477;SDS011;65309;49.790;18.972;2023-08-20T02:52:17;19.05;;;11.75;;
76477;SDS011;65309;49.790;18.972;2023-08-20T02:57:19;17.80;;;12.32;;
76477;SDS011;65309;49.790;18.972;2023-08-20T03:02:22;15.52;;;12.77;;
76477;SDS011;65309;49.790;18.972;2023-08-20T03:07:24;13.40;;;11.25;;
76477;SDS011;65309;49.790;18.972;2023-08-20T03:12:26;17.23;;;11.88;;
76477;SDS011;65309;49.790;18.972;2023-08-20T03:17:30;15.00;;;11.80;;
76477;SDS011;65309;49.790;18.972;2023-08-20T03:22:32;12.00;;;10.57;;
76477;SDS011;65309;49.790;18.972;2023-08-20T03:27:34;19.95;;;12.95;;
76477;SDS011;65309;49.790;18.972;2023-08-20T03:32:38;11.82;;;10.55;;
76477;SDS011;65309;49.790;18.972;2023-08-20T03:37:40;13.90;;;11.23;;
76477;SDS011;65309;49.790;18.972;2023-08-20T03:42:42;13.40;;;12.00;;
76477;SDS011;65309;49.790;18.972;2023-08-20T03:47:46;16.13;;;11.13;;
76477;SDS011;65309;49.790;18.972;2023-08-20T03:52:49;12.48;;;10.18;;
76477;SDS011;65309;49.790;18.972;2023-08-20T03:57:51;17.98;;;11.43;;
76477;SDS011;65309;49.790;18.972;2023-08-20T04:02:55;15.50;;;11.23;;
76477;SDS011;65309;49.790;18.972;2023-08-20T04:07:57;15.45;;;10.52;;
76477;SDS011;65309;49.790;18.972;2023-08-20T04:12:59;13.43;;;10.13;;
76477;SDS011;65309;49.790;18.972;2023-08-20T04:18:03;16.30;;;10.93;;
76477;SDS011;65309;49.790;18.972;2023-08-20T04:23:05;14.57;;;12.65;;
76477;SDS011;65309;49.790;18.972;2023-08-20T04:28:07;13.38;;;11.10;;
76477;SDS011;65309;49.790;18.972;2023-08-20T04:33:11;12.05;;;10.80;;
76477;SDS011;65309;49.790;18.972;2023-08-20T04:38:13;12.13;;;10.55;;
76477;SDS011;65309;49.790;18.972;2023-08-20T04:43:15;14.43;;;10.63;;
76477;SDS011;65309;49.790;18.972;2023-08-20T04:48:19;12.65;;;10.98;;
76477;SDS011;65309;49.790;18.972;2023-08-20T04:53:21;13.98;;;11.73;;
76477;SDS011;65309;49.790;18.972;2023-08-20T04:58:23;14.98;;;11.68;;
76477;SDS011;65309;49.790;18.972;2023-08-20T05:03:26;12.95;;;11.35;;
76477;SDS011;65309;49.790;18.972;2023-08-20T05:08:28;12.52;;;10.40;;
76477;SDS011;65309;49.790;18.972;2023-08-20T05:13:30;12.63;;;10.45;;
76477;SDS011;65309;49.790;18.972;2023-08-20T05:18:34;12.18;;;10.70;;
76477;SDS011;65309;49.790;18.972;2023-08-20T05:23:36;11.90;;;10.07;;
76477;SDS011;65309;49.790;18.972;2023-08-20T05:28:38;12.85;;;10.77;;
76477;SDS011;65309;49.790;18.972;2023-08-20T05:33:41;11.85;;;9.88;;
76477;SDS011;65309;49.790;18.972;2023-08-20T05:38:43;11.25;;;9.63;;
76477;SDS011;65309;49.790;18.972;2023-08-20T05:43:45;12.30;;;10.27;;
76477;SDS011;65309;49.790;18.972;2023-08-20T05:48:49;10.80;;;8.88;;
76477;SDS011;65309;49.790;18.972;2023-08-20T05:53:51;12.07;;;10.82;;
76477;SDS011;65309;49.790;18.972;2023-08-20T05:58:53;11.23;;;9.65;;
76477;SDS011;65309;49.790;18.972;2023-08-20T06:03:56;10.98;;;9.75;;
76477;SDS011;65309;49.790;18.972;2023-08-20T06:08:58;12.35;;;9.90;;
76477;SDS011;65309;49.790;18.972;2023-08-20T06:14:10;11.93;;;9.05;;
76477;SDS011;65309;49.790;18.972;2023-08-20T06:19:13;9.70;;;8.50;;
76477;SDS011;65309;49.790;18.972;2023-08-20T06:24:15;10.70;;;9.63;;
76477;SDS011;65309;49.790;18.972;2023-08-20T06:29:17;9.38;;;8.10;;
76477;SDS011;65309;49.790;18.972;2023-08-20T06:34:21;8.85;;;6.95;;
76477;SDS011;65309;49.790;18.972;2023-08-20T06:39:23;11.25;;;9.43;;
76477;SDS011;65309;49.790;18.972;2023-08-20T06:44:25;9.82;;;8.93;;
76477;SDS011;65309;49.790;18.972;2023-08-20T06:49:28;10.70;;;8.38;;
76477;SDS011;65309;49.790;18.972;2023-08-20T06:54:30;9.38;;;8.35;;
76477;SDS011;65309;49.790;18.972;2023-08-20T06:59:32;8.48;;;7.57;;
76477;SDS011;65309;49.790;18.972;2023-08-20T07:04:36;8.30;;;7.50;;
76477;SDS011;65309;49.790;18.972;2023-08-20T07:09:38;8.93;;;8.13;;
76477;SDS011;65309;49.790;18.972;2023-08-20T07:14:41;8.35;;;7.35;;
76477;SDS011;65309;49.790;18.972;2023-08-20T07:19:44;8.10;;;7.30;;
76477;SDS011;65309;49.790;18.972;2023-08-20T07:24:46;8.23;;;7.38;;
76477;SDS011;65309;49.790;18.972;2023-08-20T07:29:48;8.35;;;7.53;;
76477;SDS011;65309;49.790;18.972;2023-08-20T07:34:52;9.55;;;7.32;;
76477;SDS011;65309;49.790;18.972;2023-08-20T07:39:54;10.05;;;8.32;;
76477;SDS011;65309;49.790;18.972;2023-08-20T07:44:56;10.27;;;7.68;;
76477;SDS011;65309;49.790;18.972;2023-08-20T07:49:59;10.50;;;8.45;;
76477;SDS011;65309;49.790;18.972;2023-08-20T07:55:01;11.05;;;8.10;;
76477;SDS011;65309;49.790;18.972;2023-08-20T08:00:04;16.52;;;8.45;;
76477;SDS011;65309;49.790;18.972;2023-08-20T08:05:08;9.18;;;8.18;;
76477;SDS011;65309;49.790;18.972;2023-08-20T08:10:10;8.60;;;7.55;;
76477;SDS011;65309;49.790;18.972;2023-08-20T08:15:13;9.65;;;8.45;;
76477;SDS011;65309;49.790;18.972;2023-08-20T08:20:16;8.80;;;7.93;;
76477;SDS011;65309;49.790;18.972;2023-08-20T08:25:19;9.30;;;8.27;;
76477;SDS011;65309;49.790;18.972;2023-08-20T08:30:21;7.85;;;7.05;;
76477;SDS011;65309;49.790;18.972;2023-08-20T08:35:25;8.95;;;8.13;;
76477;SDS011;65309;49.790;18.972;2023-08-20T08:40:27;8.85;;;7.95;;
76477;SDS011;65309;49.790;18.972;2023-08-20T08:45:31;9.20;;;8.18;;
76477;SDS011;65309;49.790;18.972;2023-08-20T08:50:37;9.40;;;8.43;;
76477;SDS011;65309;49.790;18.972;2023-08-20T08:55:39;9.50;;;8.50;;
76477;SDS011;65309;49.790;18.972;2023-08-20T09:00:44;9.55;;;8.00;;
76477;SDS011;65309;49.790;18.972;2023-08-20T09:05:48;9.95;;;8.95;;
76477;SDS011;65309;49.790;18.972;2023-08-20T09:10:50;9.75;;;8.02;;
76477;SDS011;65309;49.790;18.972;2023-08-20T09:15:53;10.38;;;9.05;;
76477;SDS011;65309;49.790;18.972;2023-08-20T09:20:58;10.43;;;9.38;;
76477;SDS011;65309;49.790;18.972;2023-08-20T09:26:01;10.35;;;9.15;;
76477;SDS011;65309;49.790;18.972;2023-08-20T09:31:04;8.80;;;7.90;;
76477;SDS011;65309;49.790;18.972;2023-08-20T09:36:08;10.63;;;9.63;;
76477;SDS011;65309;49.790;18.972;2023-08-20T09:41:11;10.38;;;9.10;;
76477;SDS011;65309;49.790;18.972;2023-08-20T09:46:14;10.45;;;9.45;;
76477;SDS011;65309;49.790;18.972;2023-08-20T09:51:24;11.63;;;10.10;;
76477;SDS011;65309;49.790;18.972;2023-08-20T09:56:28;10.18;;;9.18;;
76477;SDS011;65309;49.790;18.972;2023-08-20T10:01:31;10.75;;;9.65;;
76477;SDS011;65309;49.790;18.972;2023-08-20T10:06:36;9.75;;;8.23;;
76477;SDS011;65309;49.790;18.972;2023-08-20T10:11:39;10.43;;;9.43;;
76477;SDS011;65309;49.790;18.972;2023-08-20T10:16:42;9.80;;;8.57;;
76477;SDS011;65309;49.790;18.972;2023-08-20T10:21:45;12.32;;;9.52;;
76477;SDS011;65309;49.790;18.972;2023-08-20T10:26:48;10.73;;;8.60;;
76477;SDS011;65309;49.790;18.972;2023-08-20T10:31:50;8.77;;;7.75;;
76477;SDS011;65309;49.790;18.972;2023-08-20T10:36:57;9.90;;;8.20;;
76477;SDS011;65309;49.790;18.972;2023-08-20T10:42:08;9.32;;;8.40;;
76477;SDS011;65309;49.790;18.972;2023-08-20T10:47:15;9.70;;;8.70;;
76477;SDS011;65309;49.790;18.972;2023-08-20T10:52:20;10.10;;;9.05;;
76477;SDS011;65309;49.790;18.972;2023-08-20T10:57:32;9.98;;;8.98;;
76477;SDS011;65309;49.790;18.972;2023-08-20T11:02:36;9.75;;;8.75;;
76477;SDS011;65309;49.790;18.972;2023-08-20T11:07:40;9.52;;;8.55;;
76477;SDS011;65309;49.790;18.972;2023-08-20T11:12:43;8.73;;;7.93;;
76477;SDS011;65309;49.790;18.972;2023-08-20T11:17:47;9.60;;;8.60;;
76477;SDS011;65309;49.790;18.972;2023-08-20T11:22:53;9.50;;;8.60;;
76477;SDS011;65309;49.790;18.972;2023-08-20T11:27:55;9.23;;;7.80;;
76477;SDS011;65309;49.790;18.972;2023-08-20T11:32:57;8.27;;;7.53;;
76477;SDS011;65309;49.790;18.972;2023-08-20T11:38:01;11.57;;;7.25;;
76477;SDS011;65309;49.790;18.972;2023-08-20T11:43:04;9.13;;;8.23;;
76477;SDS011;65309;49.790;18.972;2023-08-20T11:48:08;9.65;;;7.95;;
76477;SDS011;65309;49.790;18.972;2023-08-20T11:53:12;8.25;;;7.53;;
76477;SDS011;65309;49.790;18.972;2023-08-20T11:58:14;9.75;;;7.70;;
76477;SDS011;65309;49.790;18.972;2023-08-20T12:03:17;9.23;;;8.32;;
76477;SDS011;65309;49.790;18.972;2023-08-20T12:08:21;8.93;;;7.85;;
76477;SDS011;65309;49.790;18.972;2023-08-20T12:13:23;9.48;;;7.70;;
76477;SDS011;65309;49.790;18.972;2023-08-20T12:18:25;12.25;;;7.93;;
76477;SDS011;65309;49.790;18.972;2023-08-20T12:23:29;9.65;;;7.53;;
76477;SDS011;65309;49.790;18.972;2023-08-20T12:28:31;8.85;;;7.95;;
76477;SDS011;65309;49.790;18.972;2023-08-20T12:33:33;8.38;;;7.43;;
76477;SDS011;65309;49.790;18.972;2023-08-20T12:38:36;8.20;;;7.40;;
76477;SDS011;65309;49.790;18.972;2023-08-20T12:43:38;8.60;;;7.80;;
76477;SDS011;65309;49.790;18.972;2023-08-20T12:48:40;14.50;;;8.15;;
76477;SDS011;65309;49.790;18.972;2023-08-20T12:53:44;10.70;;;7.90;;
76477;SDS011;65309;49.790;18.972;2023-08-20T12:58:46;8.90;;;7.85;;
76477;SDS011;65309;49.790;18.972;2023-08-20T13:03:48;8.40;;;7.30;;
76477;SDS011;65309;49.790;18.972;2023-08-20T13:08:53;8.68;;;7.88;;
76477;SDS011;65309;49.790;18.972;2023-08-20T13:13:55;8.25;;;7.47;;
76477;SDS011;65309;49.790;18.972;2023-08-20T13:18:58;8.57;;;7.15;;
76477;SDS011;65309;49.790;18.972;2023-08-20T13:24:02;9.02;;;8.23;;
76477;SDS011;65309;49.790;18.972;2023-08-20T13:29:04;8.18;;;7.45;;
76477;SDS011;65309;49.790;18.972;2023-08-20T13:34:06;8.75;;;7.82;;
76477;SDS011;65309;49.790;18.972;2023-08-20T13:39:10;7.55;;;6.85;;
76477;SDS011;65309;49.790;18.972;2023-08-20T13:44:15;8.40;;;7.07;;
76477;SDS011;65309;49.790;18.972;2023-08-20T13:49:17;7.68;;;6.97;;
76477;SDS011;65309;49.790;18.972;2023-08-20T13:54:20;7.78;;;6.97;;
76477;SDS011;65309;49.790;18.972;2023-08-20T13:59:22;7.90;;;7.00;;
76477;SDS011;65309;49.790;18.972;2023-08-20T14:04:25;7.47;;;6.78;;
76477;SDS011;65309;49.790;18.972;2023-08-20T14:09:28;8.00;;;7.20;;
76477;SDS011;65309;49.790;18.972;2023-08-20T14:14:30;7.20;;;6.43;;
76477;SDS011;65309;49.790;18.972;2023-08-20T14:19:32;7.38;;;6.65;;
76477;SDS011;65309;49.790;18.972;2023-08-20T14:24:36;8.65;;;6.30;;
76477;SDS011;65309;49.790;18.972;2023-08-20T14:29:38;7.22;;;6.10;;
76477;SDS011;65309;49.790;18.972;2023-08-20T14:34:40;7.68;;;5.78;;
76477;SDS011;65309;49.790;18.972;2023-08-20T14:39:43;7.55;;;6.32;;
76477;SDS011;65309;49.790;18.972;2023-08-20T14:44:45;7.75;;;6.95;;
76477;SDS011;65309;49.790;18.972;2023-08-20T14:49:47;8.68;;;6.40;;
76477;SDS011;65309;49.790;18.972;2023-08-20T14:54:51;8.23;;;7.32;;
76477;SDS011;65309;49.790;18.972;2023-08-20T14:59:53;8.43;;;6.60;;
76477;SDS011;65309;49.790;18.972;2023-08-20T15:04:55;8.75;;;7.00;;
76477;SDS011;65309;49.790;18.972;2023-08-20T15:09:59;8.32;;;7.53;;
76477;SDS011;65309;49.790;18.972;2023-08-20T15:15:01;8.02;;;7.22;;
76477;SDS011;65309;49.790;18.972;2023-08-20T15:20:05;9.07;;;7.30;;
76477;SDS011;65309;49.790;18.972;2023-08-20T15:25:14;8.43;;;7.53;;
76477;SDS011;65309;49.790;18.972;2023-08-20T15:30:16;10.27;;;7.35;;
76477;SDS011;65309;49.790;18.972;2023-08-20T15:35:20;8.60;;;7.50;;
76477;SDS011;65309;49.790;18.972;2023-08-20T15:40:24;8.35;;;7.53;;
76477;SDS011;65309;49.790;18.972;2023-08-20T15:45:26;9.52;;;7.95;;
76477;SDS011;65309;49.790;18.972;2023-08-20T15:50:28;7.35;;;6.65;;
76477;SDS011;65309;49.790;18.972;2023-08-20T15:55:31;8.07;;;7.22;;
76477;SDS011;65309;49.790;18.972;2023-08-20T16:00:33;8.18;;;7.05;;
76477;SDS011;65309;49.790;18.972;2023-08-20T16:05:37;8.40;;;7.40;;
76477;SDS011;65309;49.790;18.972;2023-08-20T16:10:41;17.23;;;13.82;;
76477;SDS011;65309;49.790;18.972;2023-08-20T16:15:43;10.30;;;9.30;;
76477;SDS011;65309;49.790;18.972;2023-08-20T16:20:45;9.98;;;8.60;;
76477;SDS011;65309;49.790;18.972;2023-08-20T16:25:48;13.93;;;12.48;;
76477;SDS011;65309;49.790;18.972;2023-08-20T16:30:51;13.38;;;11.98;;
76477;SDS011;65309;49.790;18.972;2023-08-20T16:35:53;11.70;;;10.30;;
76477;SDS011;65309;49.790;18.972;2023-08-20T16:40:59;14.77;;;12.90;;
76477;SDS011;65309;49.790;18.972;2023-08-20T16:46:03;16.23;;;13.85;;
76477;SDS011;65309;49.790;18.972;2023-08-20T16:51:06;16.45;;;14.80;;
76477;SDS011;65309;49.790;18.972;2023-08-20T16:56:09;14.50;;;13.00;;
76477;SDS011;65309;49.790;18.972;2023-08-20T17:01:11;17.52;;;15.73;;
76477;SDS011;65309;49.790;18.972;2023-08-20T17:06:13;19.05;;;15.95;;
76477;SDS011;65309;49.790;18.972;2023-08-20T17:11:17;19.98;;;15.77;;
76477;SDS011;65309;49.790;18.972;2023-08-20T17:16:20;16.95;;;15.30;;
76477;SDS011;65309;49.790;18.972;2023-08-20T17:21:24;21.25;;;18.48;;
76477;SDS011;65309;49.790;18.972;2023-08-20T17:26:27;23.85;;;17.00;;
76477;SDS011;65309;49.790;18.972;2023-08-20T17:31:29;22.50;;;17.27;;
76477;SDS011;65309;49.790;18.972;2023-08-20T17:36:32;20.73;;;15.80;;
76477;SDS011;65309;49.790;18.972;2023-08-20T17:41:36;14.07;;;11.95;;
76477;SDS011;65309;49.790;18.972;2023-08-20T17:46:41;15.30;;;11.60;;
76477;SDS011;65309;49.790;18.972;2023-08-20T17:51:44;14.63;;;10.38;;
76477;SDS011;65309;49.790;18.972;2023-08-20T17:56:48;10.95;;;8.80;;
76477;SDS011;65309;49.790;18.972;2023-08-20T18:01:50;13.00;;;9.27;;
76477;SDS011;65309;49.790;18.972;2023-08-20T18:06:53;11.18;;;9.25;;
76477;SDS011;65309;49.790;18.972;2023-08-20T18:11:56;12.65;;;9.38;;
76477;SDS011;65309;49.790;18.972;2023-08-20T18:16:58;12.57;;;11.02;;
76477;SDS011;65309;49.790;18.972;2023-08-20T18:22:00;9.70;;;8.68;;
76477;SDS011;65309;49.790;18.972;2023-08-20T18:27:05;14.23;;;9.88;;
76477;SDS011;65309;49.790;18.972;2023-08-20T18:32:07;13.73;;;9.73;;
76477;SDS011;65309;49.790;18.972;2023-08-20T18:37:09;12.73;;;8.68;;
76477;SDS011;65309;49.790;18.972;2023-08-20T18:42:13;13.23;;;9.23;;
76477;SDS011;65309;49.790;18.972;2023-08-20T18:47:15;9.95;;;8.07;;
76477;SDS011;65309;49.790;18.972;2023-08-20T18:52:17;8.90;;;7.97;;
76477;SDS011;65309;49.790;18.972;2023-08-20T18:57:21;9.90;;;8.05;;
76477;SDS011;65309;49.790;18.972;2023-08-20T19:02:23;9.20;;;8.07;;
76477;SDS011;65309;49.790;18.972;2023-08-20T19:07:26;10.20;;;7.82;;
76477;SDS011;65309;49.790;18.972;2023-08-20T19:12:34;10.55;;;8.15;;
76477;SDS011;65309;49.790;18.972;2023-08-20T19:17:37;11.77;;;8.18;;
76477;SDS011;65309;49.790;18.972;2023-08-20T19:22:40;16.35;;;13.05;;
76477;SDS011;65309;49.790;18.972;2023-08-20T19:27:44;10.98;;;9.88;;
76477;SDS011;65309;49.790;18.972;2023-08-20T19:32:47;10.90;;;8.25;;
76477;SDS011;65309;49.790;18.972;2023-08-20T19:37:52;10.10;;;9.10;;
76477;SDS011;65309;49.790;18.972;2023-08-20T19:42:56;8.57;;;7.72;;
76477;SDS011;65309;49.790;18.972;2023-08-20T19:47:58;11.32;;;9.55;;
76477;SDS011;65309;49.790;18.972;2023-08-20T19:53:00;10.68;;;8.70;;
76477;SDS011;65309;49.790;18.972;2023-08-20T19:58:04;14.13;;;8.95;;
76477;SDS011;65309;49.790;18.972;2023-08-20T20:03:07;10.63;;;8.32;;
76477;SDS011;65309;49.790;18.972;2023-08-20T20:08:11;15.57;;;7.80;;
76477;SDS011;65309;49.790;18.972;2023-08-20T20:13:15;13.13;;;9.70;;
76477;SDS011;65309;49.790;18.972;2023-08-20T20:18:17;14.70;;;11.82;;
76477;SDS011;65309;49.790;18.972;2023-08-20T20:23:19;12.82;;;10.55;;
76477;SDS011;65309;49.790;18.972;2023-08-20T20:28:23;12.88;;;9.70;;
76477;SDS011;65309;49.790;18.972;2023-08-20T20:33:25;9.90;;;8.90;;
76477;SDS011;65309;49.790;18.972;2023-08-20T20:38:27;10.75;;;9.65;;
76477;SDS011;65309;49.790;18.972;2023-08-20T20:43:31;11.23;;;9.38;;
76477;SDS011;65309;49.790;18.972;2023-08-20T20:48:34;11.82;;;9.25;;
76477;SDS011;65309;49.790;18.972;2023-08-20T20:53:36;13.70;;;9.93;;
76477;SDS011;65309;49.790;18.972;2023-08-20T20:58:39;11.10;;;8.90;;
76477;SDS011;65309;49.790;18.972;2023-08-20T21:03:42;12.30;;;9.45;;
76477;SDS011;65309;49.790;18.972;2023-08-20T21:08:44;10.38;;;9.00;;
76477;SDS011;65309;49.790;18.972;2023-08-20T21:13:47;12.65;;;9.57;;
76477;SDS011;65309;49.790;18.972;2023-08-20T21:18:49;13.10;;;10.05;;
76477;SDS011;65309;49.790;18.972;2023-08-20T21:23:51;14.48;;;10.15;;
76477;SDS011;65309;49.790;18.972;2023-08-20T21:28:58;10.95;;;9.60;;
76477;SDS011;65309;49.790;18.972;2023-08-20T21:34:00;16.17;;;10.38;;
76477;SDS011;65309;49.790;18.972;2023-08-20T21:39:02;17.33;;;12.82;;
76477;SDS011;65309;49.790;18.972;2023-08-20T21:44:06;14.77;;;10.18;;
76477;SDS011;65309;49.790;18.972;2023-08-20T21:49:08;12.30;;;9.90;;
76477;SDS011;65309;49.790;18.972;2023-08-20T21:54:10;22.98;;;14.30;;
76477;SDS011;65309;49.790;18.972;2023-08-20T21:59:14;14.60;;;11.32;;
76477;SDS011;65309;49.790;18.972;2023-08-20T22:04:16;11.85;;;9.55;;
76477;SDS011;65309;49.790;18.972;2023-08-20T22:09:18;13.80;;;10.95;;
76477;SDS011;65309;49.790;18.972;2023-08-20T22:14:21;11.13;;;9.80;;
76477;SDS011;65309;49.790;18.972;2023-08-20T22:19:23;11.40;;;10.20;;
76477;SDS011;65309;49.790;18.972;2023-08-20T22:24:27;12.30;;;11.00;;
76477;SDS011;65309;49.790;18.972;2023-08-20T22:29:30;12.15;;;10.75;;
76477;SDS011;65309;49.790;18.972;2023-08-20T22:34:32;11.93;;;10.20;;
76477;SDS011;65309;49.790;18.972;2023-08-20T22:39:34;12.65;;;10.63;;
76477;SDS011;65309;49.790;18.972;2023-08-20T22:44:38;12.30;;;8.90;;
76477;SDS011;65309;49.790;18.972;2023-08-20T22:49:40;12.50;;;10.20;;
76477;SDS011;65309;49.790;18.972;2023-08-20T22:54:42;12.73;;;9.63;;
76477;SDS011;65309;49.790;18.972;2023-08-20T22:59:46;12.70;;;10.95;;
76477;SDS011;65309;49.790;18.972;2023-08-20T23:04:48;13.45;;;10.93;;
76477;SDS011;65309;49.790;18.972;2023-08-20T23:09:50;12.35;;;9.80;;
76477;SDS011;65309;49.790;18.972;2023-08-20T23:14:53;12.35;;;9.82;;
76477;SDS011;65309;49.790;18.972;2023-08-20T23:19:55;11.48;;;9.13;;
76477;SDS011;65309;49.790;18.972;2023-08-20T23:24:58;11.88;;;9.80;;
76477;SDS011;65309;49.790;18.972;2023-08-20T23:30:01;14.82;;;10.07;;
76477;SDS011;65309;49.790;18.972;2023-08-20T23:35:06;11.50;;;9.98;;
76477;SDS011;65309;49.790;18.972;2023-08-20T23:40:11;12.35;;;10.20;;
76477;SDS011;65309;49.790;18.972;2023-08-20T23:45:14;11.73;;;9.68;;
76477;SDS011;65309;49.790;18.972;2023-08-20T23:50:16;10.70;;;9.07;;
76477;SDS011;65309;49.790;18.972;2023-08-20T23:55:18;12.18;;;10.73;;
